createdAt,value
2022-11-17T00:01:51.523Z,97453.39
2022-11-17T00:04:27.181Z,97453.14
2022-11-17T00:06:58.945Z,97453.14
2022-11-17T00:09:30.595Z,97454.05
2022-11-17T00:12:22.725Z,97458.48
2022-11-17T00:14:54.618Z,97456.79
2022-11-17T00:17:26.252Z,97459.33
2022-11-17T00:20:15.979Z,97452.81
2022-11-17T00:22:48.410Z,97448.81
2022-11-17T00:25:20.023Z,97444.48
2022-11-17T00:27:51.701Z,97443.32
2022-11-17T00:30:43.811Z,97443.75
2022-11-17T00:33:33.304Z,97442.95
2022-11-17T00:36:05.589Z,97441.05
2022-11-17T00:38:37.245Z,97441.11
2022-11-17T00:41:09.068Z,97445.08
2022-11-17T00:43:40.673Z,97448.92
2022-11-17T00:46:12.923Z,97450.70
2022-11-17T00:48:44.463Z,97452.19
2022-11-17T00:51:16.017Z,97456.63
2022-11-17T00:53:47.692Z,97456.06
2022-11-17T00:56:19.361Z,97455.98
2022-11-17T00:58:51.009Z,97457.96
2022-11-17T01:01:23.347Z,97450.34
2022-11-17T01:04:03.379Z,97449.91
2022-11-17T01:06:37.462Z,97446.21
2022-11-17T01:09:09.523Z,97446.69
2022-11-17T01:11:41.481Z,97444.46
2022-11-17T01:14:15.984Z,97442.80
2022-11-17T01:16:48.237Z,97447.50
2022-11-17T01:19:21.312Z,97444.95
2022-11-17T01:21:52.998Z,97444.89
2022-11-17T01:24:24.554Z,97437.60
2022-11-17T01:26:56.121Z,97430.69
2022-11-17T01:29:27.792Z,97433.58
2022-11-17T01:31:59.310Z,97436.40
2022-11-17T01:34:31.197Z,97436.61
2022-11-17T01:37:20.789Z,97432.08
2022-11-17T01:39:52.562Z,97430.23
2022-11-17T01:42:26.381Z,97427.89
2022-11-17T01:45:03.436Z,97427.55
2022-11-17T01:47:43.685Z,97426.81
2022-11-17T01:50:26.124Z,97424.10
2022-11-17T01:53:00.715Z,97419.94
2022-11-17T01:55:36.576Z,97417.23
2022-11-17T01:58:14.423Z,97413.55
2022-11-17T02:00:46.102Z,97417.94
2022-11-17T02:03:17.910Z,97415.23
2022-11-17T02:05:55.366Z,97416.59
2022-11-17T02:08:31.346Z,97415.38
2022-11-17T02:11:05.064Z,97423.75
2022-11-17T02:13:39.250Z,97424.77
2022-11-17T02:16:14.061Z,97422.92
2022-11-17T02:18:47.304Z,97424.14
2022-11-17T02:24:28.913Z,97424.36
2022-11-17T02:27:32.197Z,97424.36
2022-11-17T02:30:06.946Z,97423.27
2022-11-17T02:32:50.763Z,97427.46
2022-11-17T02:35:29.203Z,97423.73
2022-11-17T02:38:11.488Z,97424.41
2022-11-17T02:40:49.289Z,97419.02
2022-11-17T02:43:43.717Z,97422.42
2022-11-17T02:46:20.732Z,97425.00
2022-11-17T02:48:57.077Z,97426.30
2022-11-17T02:51:29.437Z,97428.86
2022-11-17T02:54:02.382Z,97430.29
2022-11-17T02:56:33.877Z,97431.12
2022-11-17T02:59:06.630Z,97433.85
2022-11-17T03:02:13.793Z,97431.47
2022-11-17T03:04:57.547Z,97425.02
2022-11-17T03:07:46.960Z,97422.66
2022-11-17T03:10:21.701Z,97423.70
2022-11-17T03:13:07.043Z,97418.99
2022-11-17T03:15:48.620Z,97422.21
2022-11-17T03:18:28.323Z,97419.77
2022-11-17T03:21:11.424Z,97417.45
2022-11-17T03:23:49.124Z,97413.72
2022-11-17T03:26:27.161Z,97411.08
2022-11-17T03:29:01.598Z,97410.30
2022-11-17T03:31:35.016Z,97407.39
2022-11-17T03:34:11.205Z,97407.84
2022-11-17T03:36:48.262Z,97410.71
2022-11-17T03:39:24.792Z,97415.43
2022-11-17T03:42:02.521Z,97420.38
2022-11-17T03:44:37.982Z,97421.32
2022-11-17T03:47:12.050Z,97423.47
2022-11-17T03:49:48.678Z,97426.05
2022-11-17T03:52:21.432Z,97428.23
2022-11-17T03:54:54.019Z,97420.90
2022-11-17T03:57:31.925Z,97417.11
2022-11-17T04:00:06.604Z,97417.06
2022-11-17T04:02:41.393Z,97418.83
2022-11-17T04:05:16.261Z,97417.67
2022-11-17T04:07:49.199Z,97415.12
2022-11-17T04:10:22.786Z,97416.01
2022-11-17T04:13:11.066Z,97419.75
2022-11-17T04:15:59.253Z,97420.65
2022-11-17T04:18:31.209Z,97421.30
2022-11-17T04:21:03.185Z,97418.09
2022-11-17T04:23:34.794Z,97415.65
2022-11-17T04:26:24.478Z,97413.63
2022-11-17T04:28:56.013Z,97415.34
2022-11-17T04:31:29.387Z,97413.93
2022-11-17T04:34:03.133Z,97411.89
2022-11-17T04:36:36.940Z,97408.23
2022-11-17T04:39:08.812Z,97409.92
2022-11-17T04:42:01.997Z,97411.03
2022-11-17T04:44:34.139Z,97407.19
2022-11-17T04:47:06.988Z,97414.77
2022-11-17T04:49:38.532Z,97420.34
2022-11-17T04:52:10.080Z,97423.69
2022-11-17T04:54:41.668Z,97422.27
2022-11-17T04:57:13.193Z,97422.20
2022-11-17T04:59:44.817Z,97423.23
2022-11-17T05:02:16.454Z,97425.96
2022-11-17T05:04:57.256Z,97422.97
2022-11-17T05:07:28.970Z,97422.79
2022-11-17T05:10:01.338Z,97425.06
2022-11-17T05:12:50.501Z,97427.96
2022-11-17T05:15:42.021Z,97430.09
2022-11-17T05:18:13.556Z,97433.62
2022-11-17T05:20:45.071Z,97439.15
2022-11-17T05:23:34.726Z,97439.71
2022-11-17T05:26:06.610Z,97442.08
2022-11-17T05:28:38.209Z,97441.54
2022-11-17T05:31:10.101Z,97439.59
2022-11-17T05:33:42.809Z,97437.20
2022-11-17T05:36:15.587Z,97438.42
2022-11-17T05:38:48.835Z,97437.45
2022-11-17T05:41:20.889Z,97444.92
2022-11-17T05:43:53.272Z,97454.48
2022-11-17T05:46:25.468Z,97458.76
2022-11-17T05:48:57.218Z,97465.55
2022-11-17T05:51:28.817Z,97464.23
2022-11-17T05:54:00.693Z,97460.83
2022-11-17T05:56:39.207Z,97455.14
2022-11-17T05:59:22.154Z,97460.16
2022-11-17T06:02:02.149Z,97464.28
2022-11-17T06:04:33.782Z,97465.34
2022-11-17T06:07:05.436Z,97465.08
2022-11-17T06:09:40.656Z,97467.77
2022-11-17T06:12:12.870Z,97469.88
2022-11-17T06:14:44.475Z,97474.88
2022-11-17T06:17:23.220Z,97479.09
2022-11-17T06:20:01.941Z,97479.71
2022-11-17T06:22:34.777Z,97479.66
2022-11-17T06:25:09.449Z,97478.52
2022-11-17T06:27:42.530Z,97481.92
2022-11-17T06:30:15.327Z,97483.36
2022-11-17T06:32:49.505Z,97485.86
2022-11-17T06:35:21.288Z,97489.05
2022-11-17T06:37:52.827Z,97491.74
2022-11-17T06:40:24.365Z,97496.50
2022-11-17T06:43:08.617Z,97495.54
2022-11-17T06:45:42.101Z,97499.24
2022-11-17T06:48:15.472Z,97503.07
2022-11-17T06:50:49.343Z,97506.80
2022-11-17T06:53:22.926Z,97509.84
2022-11-17T06:55:53.729Z,97497.39
2022-11-17T06:58:25.320Z,97493.52
2022-11-17T07:01:01.850Z,97490.89
2022-11-17T07:03:34.538Z,97489.79
2022-11-17T07:06:08.179Z,97487.13
2022-11-17T07:08:40.444Z,97490.52
2022-11-17T07:11:13.826Z,97482.33
2022-11-17T07:13:45.925Z,97484.45
2022-11-17T07:16:23.451Z,97483.79
2022-11-17T07:18:56.230Z,97483.86
2022-11-17T07:21:27.876Z,97488.41
2022-11-17T07:23:59.703Z,97487.20
2022-11-17T07:26:31.265Z,97493.55
2022-11-17T07:29:02.876Z,97492.34
2022-11-17T07:31:35.278Z,97497.34
2022-11-17T07:34:06.924Z,97497.75
2022-11-17T07:36:38.597Z,97494.71
2022-11-17T07:39:10.239Z,97496.86
2022-11-17T07:41:41.871Z,97493.25
2022-11-17T07:44:13.514Z,97502.13
2022-11-17T07:46:45.164Z,97500.54
2022-11-17T07:49:17.102Z,97502.78
2022-11-17T07:51:48.625Z,97497.09
2022-11-17T07:54:20.222Z,97491.16
2022-11-17T07:56:51.768Z,97490.64
2022-11-17T07:59:23.312Z,97494.31
2022-11-17T08:01:54.849Z,97497.02
2022-11-17T08:04:26.397Z,97502.64
2022-11-17T08:06:57.976Z,97503.13
2022-11-17T08:09:29.563Z,97507.10
2022-11-17T08:12:01.151Z,97507.13
2022-11-17T08:14:33.222Z,97507.56
2022-11-17T08:17:04.810Z,97508.27
2022-11-17T08:19:36.287Z,97506.06
2022-11-17T08:22:07.794Z,97502.31
2022-11-17T08:24:39.349Z,97505.02
2022-11-17T08:27:11.494Z,97510.40
2022-11-17T08:29:43.005Z,97513.66
2022-11-17T08:32:14.504Z,97514.47
2022-11-17T08:34:45.976Z,97513.44
2022-11-17T08:37:17.541Z,97508.30
2022-11-17T08:39:49.121Z,97515.49
2022-11-17T08:42:20.758Z,97516.75
2022-11-17T08:44:52.398Z,97517.92
2022-11-17T08:47:24.097Z,97516.50
2022-11-17T08:49:55.644Z,97520.52
2022-11-17T08:52:28.197Z,97526.15
2022-11-17T08:54:59.890Z,97524.33
2022-11-17T08:57:33.876Z,97528.96
2022-11-17T09:00:07.152Z,97536.10
2022-11-17T09:02:39.751Z,97534.41
2022-11-17T09:05:12.172Z,97537.64
2022-11-17T09:07:43.880Z,97538.88
2022-11-17T09:10:15.880Z,97544.56
2022-11-17T09:12:47.384Z,97540.41
2022-11-17T09:15:19.695Z,97540.39
2022-11-17T09:17:51.238Z,97541.90
2022-11-17T09:20:23.567Z,97542.07
2022-11-17T09:22:55.034Z,97544.48
2022-11-17T09:25:26.488Z,97545.81
2022-11-17T09:27:58.043Z,97547.85
2022-11-17T09:30:29.517Z,97543.03
2022-11-17T09:33:01.087Z,97543.80
2022-11-17T09:35:32.625Z,97542.83
2022-11-17T09:38:04.287Z,97542.39
2022-11-17T09:40:38.135Z,97541.98
2022-11-17T09:43:27.381Z,97538.64
2022-11-17T09:46:07.820Z,97536.35
2022-11-17T09:48:49.811Z,97537.23
2022-11-17T09:51:24.849Z,97537.41
2022-11-17T09:54:04.199Z,97537.67
2022-11-17T09:56:36.450Z,97536.77
2022-11-17T09:59:13.359Z,97533.02
2022-11-17T10:01:45.020Z,97537.77
2022-11-17T10:04:18.595Z,97541.38
2022-11-17T10:06:52.179Z,97540.21
2022-11-17T10:09:32.145Z,97538.07
2022-11-17T10:12:17.288Z,97539.27
2022-11-17T10:14:50.534Z,97538.51
2022-11-17T10:17:22.175Z,97540.63
2022-11-17T10:19:53.806Z,97540.36
2022-11-17T10:22:36.620Z,97545.04
2022-11-17T10:25:24.220Z,97547.19
2022-11-17T10:27:56.236Z,97547.27
2022-11-17T10:30:28.432Z,97544.47
2022-11-17T10:33:01.707Z,97550.96
2022-11-17T10:35:34.833Z,97555.92
2022-11-17T10:38:17.589Z,97550.22
2022-11-17T10:40:52.152Z,97547.90
2022-11-17T10:43:28.301Z,97548.14
2022-11-17T10:46:04.423Z,97547.91
2022-11-17T10:48:37.722Z,97549.65
2022-11-17T10:51:24.864Z,97547.56
2022-11-17T10:54:19.372Z,97544.14
2022-11-17T10:56:53.104Z,97541.04
2022-11-17T10:59:32.232Z,97540.11
2022-11-17T11:02:29.154Z,97534.35
2022-11-17T11:05:13.468Z,97532.21
2022-11-17T11:07:45.643Z,97531.69
2022-11-17T11:10:37.796Z,97537.48
2022-11-17T11:13:36.874Z,97544.94
2022-11-17T11:16:10.319Z,97541.73
2022-11-17T11:18:42.088Z,97531.49
2022-11-17T11:21:19.418Z,97529.14
2022-11-17T11:23:57.911Z,97527.65
2022-11-17T11:26:48.124Z,97530.98
2022-11-17T11:29:29.136Z,97531.77
2022-11-17T11:32:16.707Z,97534.52
2022-11-17T11:35:05.179Z,97530.96
2022-11-17T11:37:43.297Z,97533.91
2022-11-17T11:40:22.020Z,97527.55
2022-11-17T11:42:59.617Z,97533.70
2022-11-17T11:45:48.666Z,97538.52
2022-11-17T11:48:25.871Z,97533.41
2022-11-17T11:51:00.860Z,97536.38
2022-11-17T11:53:39.148Z,97528.71
2022-11-17T11:56:16.065Z,97534.92
2022-11-17T11:58:52.823Z,97530.96
2022-11-17T12:01:26.338Z,97533.44
2022-11-17T12:04:07.241Z,97532.06
2022-11-17T12:06:47.437Z,97533.91
2022-11-17T12:09:44.707Z,97533.02
2022-11-17T12:12:20.132Z,97532.91
2022-11-17T12:15:31.248Z,97538.90
2022-11-17T12:18:05.988Z,97540.84
2022-11-17T12:20:58.938Z,97543.80
2022-11-17T12:23:48.937Z,97554.45
2022-11-17T12:26:26.477Z,97565.85
2022-11-17T12:29:34.269Z,97571.77
2022-11-17T12:32:05.984Z,97570.15
2022-11-17T12:34:38.393Z,97568.54
2022-11-17T12:37:29.919Z,97560.77
2022-11-17T12:40:08.858Z,97568.69
2022-11-17T12:43:17.407Z,97582.88
2022-11-17T12:46:14.880Z,97585.48
2022-11-17T12:48:54.464Z,97591.02
2022-11-17T12:51:34.264Z,97592.86
2022-11-17T12:54:15.966Z,97593.20
2022-11-17T12:56:53.833Z,97589.00
2022-11-17T12:59:43.841Z,97586.10
2022-11-17T13:02:39.232Z,97583.91
2022-11-17T13:05:18.745Z,97582.64
2022-11-17T13:07:50.544Z,97580.84
2022-11-17T13:10:29.521Z,97576.90
2022-11-17T13:13:17.446Z,97570.67
2022-11-17T13:15:52.475Z,97560.83
2022-11-17T13:18:32.361Z,97553.82
2022-11-17T13:21:05.418Z,97553.19
2022-11-17T13:23:43.820Z,97554.98
2022-11-17T13:26:23.672Z,97558.54
2022-11-17T13:29:07.800Z,97562.47
2022-11-17T13:31:39.513Z,97564.39
2022-11-17T13:34:18.293Z,97570.74
2022-11-17T13:37:00.396Z,97574.46
2022-11-17T13:39:31.956Z,97580.95
2022-11-17T13:42:04.192Z,97580.26
2022-11-17T13:44:36.473Z,97578.85
2022-11-17T13:47:22.595Z,97578.60
2022-11-17T13:49:54.186Z,97580.34
2022-11-17T13:52:40.536Z,97581.73
2022-11-17T13:55:20.958Z,97580.11
2022-11-17T13:57:58.825Z,97576.49
2022-11-17T14:00:31.406Z,97572.68
2022-11-17T14:03:04.982Z,97566.44
2022-11-17T14:05:35.073Z,97567.15
2022-11-17T14:08:28.595Z,97563.39
2022-11-17T14:11:15.368Z,97557.04
2022-11-17T14:13:48.249Z,97562.68
2022-11-17T14:16:28.397Z,97559.52
2022-11-17T14:19:03.344Z,97564.18
2022-11-17T14:21:35.316Z,97564.46
2022-11-17T14:24:12.055Z,97561.09
2022-11-17T14:26:49.688Z,97558.45
2022-11-17T14:29:21.303Z,97561.74
2022-11-17T14:31:52.910Z,97558.90
2022-11-17T14:34:24.850Z,97565.80
2022-11-17T14:36:57.726Z,97571.98
2022-11-17T14:39:29.341Z,97570.09
2022-11-17T14:42:00.848Z,97571.50
2022-11-17T14:44:32.393Z,97568.05
2022-11-17T14:47:04.390Z,97565.41
2022-11-17T14:49:35.859Z,97558.69
2022-11-17T14:52:07.477Z,97551.31
2022-11-17T14:54:38.989Z,97552.77
2022-11-17T14:57:10.755Z,97549.41
2022-11-17T14:59:42.501Z,97548.62
2022-11-17T15:02:14.628Z,97543.98
2022-11-17T15:04:51.623Z,97537.77
2022-11-17T15:07:23.495Z,97536.41
2022-11-17T15:09:55.568Z,97531.79
2022-11-17T15:12:28.951Z,97536.73
2022-11-17T15:15:00.503Z,97529.62
2022-11-17T15:17:31.998Z,97532.16
2022-11-17T15:20:03.471Z,97523.76
2022-11-17T15:22:35.005Z,97528.81
2022-11-17T15:25:08.243Z,97528.66
2022-11-17T15:27:39.740Z,97522.63
2022-11-17T15:30:13.425Z,97528.98
2022-11-17T15:32:45.011Z,97523.23
2022-11-17T15:35:16.681Z,97512.61
2022-11-17T15:37:48.357Z,97507.39
2022-11-17T15:40:20.611Z,97503.79
2022-11-17T15:42:55.192Z,97497.70
2022-11-17T15:45:27.884Z,97498.62
2022-11-17T15:47:59.741Z,97497.39
2022-11-17T15:50:31.439Z,97497.17
2022-11-17T15:53:04.488Z,97493.63
2022-11-17T15:55:36.087Z,97486.02
2022-11-17T15:58:07.697Z,97483.87
2022-11-17T16:00:40.523Z,97475.58
2022-11-17T16:03:12.035Z,97482.15
2022-11-17T16:05:46.334Z,97483.06
2022-11-17T16:08:17.952Z,97488.55
2022-11-17T16:10:49.489Z,97490.17
2022-11-17T16:13:21.129Z,97493.52
2022-11-17T16:15:53.210Z,97500.62
2022-11-17T16:18:24.745Z,97498.69
2022-11-17T16:21:01.488Z,97504.66
2022-11-17T16:23:41.677Z,97508.21
2022-11-17T16:26:15.220Z,97504.50
2022-11-17T16:28:46.839Z,97501.66
2022-11-17T16:31:21.310Z,97506.82
2022-11-17T16:33:54.665Z,97506.33
2022-11-17T16:36:32.690Z,97509.06
2022-11-17T16:39:09.506Z,97510.15
2022-11-17T16:41:42.894Z,97517.20
2022-11-17T16:44:16.354Z,97517.47
2022-11-17T16:46:47.477Z,97528.81
2022-11-17T16:49:20.762Z,97530.91
2022-11-17T16:51:51.952Z,97532.65
2022-11-17T16:54:23.490Z,97533.13
2022-11-17T16:56:54.981Z,97534.09
2022-11-17T16:59:26.456Z,97533.29
2022-11-17T17:01:57.900Z,97529.62
2022-11-17T17:04:31.715Z,97529.42
2022-11-17T17:07:07.327Z,97532.81
2022-11-17T17:09:40.608Z,97534.00
2022-11-17T17:12:13.061Z,97538.99
2022-11-17T17:14:44.924Z,97538.98
2022-11-17T17:17:16.416Z,97536.15
2022-11-17T17:19:48.082Z,97538.14
2022-11-17T17:22:19.652Z,97538.04
2022-11-17T17:24:51.214Z,97535.77
2022-11-17T17:27:22.823Z,97530.43
2022-11-17T17:29:57.088Z,97535.27
2022-11-17T17:32:28.770Z,97525.39
2022-11-17T17:35:00.292Z,97519.52
2022-11-17T17:37:34.182Z,97520.32
2022-11-17T17:40:06.947Z,97523.70
2022-11-17T17:42:38.548Z,97518.59
2022-11-17T17:45:11.041Z,97518.93
2022-11-17T17:47:42.565Z,97514.73
2022-11-17T17:50:14.054Z,97515.98
2022-11-17T17:52:45.601Z,97513.27
2022-11-17T17:55:17.647Z,97509.89
2022-11-17T17:57:49.137Z,97510.42
2022-11-17T18:00:23.236Z,97512.09
2022-11-17T18:02:54.984Z,97510.48
2022-11-17T18:05:27.280Z,97512.26
2022-11-17T18:07:58.821Z,97509.67
2022-11-17T18:10:30.331Z,97511.50
2022-11-17T18:13:05.177Z,97514.78
2022-11-17T18:15:42.720Z,97513.52
2022-11-17T18:18:14.230Z,97506.47
2022-11-17T18:20:45.664Z,97497.05
2022-11-17T18:23:17.210Z,97492.75
2022-11-17T18:25:48.684Z,97493.88
2022-11-17T18:28:20.187Z,97499.16
2022-11-17T18:30:51.773Z,97498.67
2022-11-17T18:33:23.231Z,97492.39
2022-11-17T18:35:54.718Z,97483.63
2022-11-17T18:38:26.229Z,97469.26
2022-11-17T18:41:09.058Z,97453.86
2022-11-17T18:43:40.771Z,97463.75
2022-11-17T18:46:14.867Z,97470.80
2022-11-17T18:48:48.661Z,97469.85
2022-11-17T18:51:22.161Z,97464.65
2022-11-17T18:53:52.987Z,97465.66
2022-11-17T18:56:26.648Z,97465.55
2022-11-17T18:58:58.149Z,97464.00
2022-11-17T19:01:31.536Z,97462.48
2022-11-17T19:04:03.385Z,97471.91
2022-11-17T19:06:34.908Z,97472.77
2022-11-17T19:09:08.181Z,97473.02
2022-11-17T19:11:39.883Z,97474.59
2022-11-17T19:14:11.373Z,97479.15
2022-11-17T19:16:45.043Z,97486.80
2022-11-17T19:19:17.506Z,97477.17
2022-11-17T19:21:49.652Z,97481.00
2022-11-17T19:24:21.234Z,97485.41
2022-11-17T19:26:52.719Z,97490.53
2022-11-17T19:29:25.368Z,97491.38
2022-11-17T19:31:57.022Z,97496.48
2022-11-17T19:34:28.530Z,97501.75
2022-11-17T19:37:00.013Z,97502.98
2022-11-17T19:39:31.505Z,97498.20
2022-11-17T19:42:03.081Z,97499.42
2022-11-17T19:44:34.677Z,97501.80
2022-11-17T19:47:06.317Z,97498.52
2022-11-17T19:49:39.676Z,97505.67
2022-11-17T19:52:11.207Z,97504.54
2022-11-17T19:54:42.722Z,97502.92
2022-11-17T19:57:14.183Z,97505.20
2022-11-17T19:59:45.782Z,97506.92
2022-11-17T20:02:17.243Z,97504.23
2022-11-17T20:04:48.690Z,97501.11
2022-11-17T20:07:20.428Z,97499.77
2022-11-17T20:09:52.081Z,97495.90
2022-11-17T20:12:24.707Z,97498.86
2022-11-17T20:14:56.163Z,97502.36
2022-11-17T20:17:27.710Z,97504.02
2022-11-17T20:19:59.231Z,97498.77
2022-11-17T20:22:31.985Z,97499.98
2022-11-17T20:25:05.525Z,97499.52
2022-11-17T20:27:35.453Z,97492.98
2022-11-17T20:30:14.796Z,97480.58
2022-11-17T20:32:46.986Z,97481.16
2022-11-17T20:35:18.955Z,97479.45
2022-11-17T20:37:50.452Z,97475.09
2022-11-17T20:40:22.000Z,97474.55
2022-11-17T20:42:55.185Z,97469.11
2022-11-17T20:45:26.933Z,97466.91
2022-11-17T20:47:58.557Z,97463.85
2022-11-17T20:50:30.078Z,97459.44
2022-11-17T20:53:01.604Z,97456.21
2022-11-17T20:55:33.195Z,97454.71
2022-11-17T20:58:04.672Z,97448.24
2022-11-17T21:00:36.472Z,97446.90
2022-11-17T21:03:09.361Z,97443.52
2022-11-17T21:05:41.169Z,97440.45
2022-11-17T21:08:12.822Z,97445.73
2022-11-17T21:10:44.313Z,97445.35
2022-11-17T21:13:15.860Z,97439.61
2022-11-17T21:15:47.557Z,97438.79
2022-11-17T21:18:25.196Z,97430.83
2022-11-17T21:20:59.236Z,97426.20
2022-11-17T21:23:31.145Z,97426.09
2022-11-17T21:26:07.118Z,97426.46
2022-11-17T21:28:39.513Z,97423.23
2022-11-17T21:31:13.806Z,97421.03
2022-11-17T21:33:45.800Z,97422.69
2022-11-17T21:36:18.692Z,97419.19
2022-11-17T21:38:50.294Z,97413.59
2022-11-17T21:41:23.875Z,97415.90
2022-11-17T21:43:54.936Z,97412.56
2022-11-17T21:46:28.621Z,97408.21
2022-11-17T21:49:01.326Z,97408.33
2022-11-17T21:51:34.514Z,97407.63
2022-11-17T21:54:08.197Z,97408.00
2022-11-17T21:56:40.748Z,97404.56
2022-11-17T21:59:16.508Z,97405.27
2022-11-17T22:01:48.269Z,97402.89
2022-11-17T22:04:19.821Z,97398.73
2022-11-17T22:06:51.381Z,97392.71
2022-11-17T22:09:23.085Z,97389.48
2022-11-17T22:11:55.709Z,97389.73
2022-11-17T22:14:27.558Z,97387.40
2022-11-17T22:16:59.035Z,97382.80
2022-11-17T22:19:30.882Z,97383.15
2022-11-17T22:22:02.430Z,97381.98
2022-11-17T22:24:33.948Z,97382.29
2022-11-17T22:27:05.437Z,97384.28
2022-11-17T22:29:36.990Z,97383.91
2022-11-17T22:32:08.836Z,97381.77
2022-11-17T22:34:40.361Z,97383.05
2022-11-17T22:37:11.914Z,97374.85
2022-11-17T22:39:43.405Z,97381.18
2022-11-17T22:42:18.722Z,97381.21
2022-11-17T22:44:50.257Z,97378.15
2022-11-17T22:47:21.779Z,97376.42
2022-11-17T22:49:53.399Z,97377.88
2022-11-17T22:52:25.020Z,97375.87
2022-11-17T22:54:56.591Z,97375.35
2022-11-17T22:57:28.065Z,97374.23
2022-11-17T22:59:59.590Z,97370.64
2022-11-17T23:02:31.334Z,97369.63
2022-11-17T23:05:02.837Z,97361.80
2022-11-17T23:07:34.537Z,97357.16
2022-11-17T23:10:07.585Z,97350.32
2022-11-17T23:12:39.638Z,97342.62
2022-11-17T23:15:12.081Z,97342.02
2022-11-17T23:17:43.897Z,97344.42
2022-11-17T23:20:16.039Z,97338.90
2022-11-17T23:22:47.515Z,97337.84
2022-11-17T23:25:19.176Z,97338.39
2022-11-17T23:27:50.770Z,97336.85
2022-11-17T23:30:22.537Z,97338.46
2022-11-17T23:32:55.995Z,97338.19
2022-11-17T23:35:27.537Z,97333.66
2022-11-17T23:38:00.456Z,97336.11
2022-11-17T23:40:31.953Z,97339.16
2022-11-17T23:43:03.975Z,97343.68
2022-11-17T23:45:35.577Z,97344.33
2022-11-17T23:48:07.621Z,97349.13
2022-11-17T23:50:40.828Z,97352.24
2022-11-17T23:53:12.337Z,97356.25
2022-11-17T23:55:43.839Z,97357.02
2022-11-17T23:58:15.397Z,97353.79
